Time,TemperatureF,DewpointF,PressureIn,WindDirection,WindDirectionDegrees,WindSpeedMPH,WindSpeedGustMPH,Humidity,HourlyPrecipIn,Conditions,Clouds,dailyrainin,SoftwareType,DateUTC
2013-07-15 00:01:00,74.0,-99.9,-100.00,SW,230,5.0,7.0,-999,-99.99,,,-99.99,,2013-07-15 04:01:00,
2013-07-15 00:12:00,74.0,-99.9,-100.00,SW,230,5.0,7.0,-999,-99.99,,,-99.99,,2013-07-15 04:12:00,
2013-07-15 00:22:00,73.0,-99.9,-100.00,SW,220,2.0,3.0,-999,-99.99,,,-99.99,,2013-07-15 04:22:00,
2013-07-15 00:33:00,73.0,-99.9,-100.00,South,180,2.0,3.0,-999,-99.99,,,-99.99,,2013-07-15 04:33:00,
2013-07-15 00:42:00,73.0,-99.9,-100.00,South,180,2.0,3.0,-999,-99.99,,,-99.99,,2013-07-15 04:42:00,
2013-07-15 00:54:00,73.0,-99.9,-100.00,SSW,200,3.0,3.0,-999,-99.99,,,-99.99,,2013-07-15 04:54:00,
2013-07-15 01:02:00,73.0,-99.9,-100.00,SSW,200,2.0,3.0,-999,-99.99,,,-99.99,,2013-07-15 05:02:00,
2013-07-15 01:12:00,73.0,-99.9,-100.00,SSW,200,2.0,3.0,-999,-99.99,,,-99.99,,2013-07-15 05:12:00,
2013-07-15 01:22:00,73.0,-99.9,-100.00,SW,220,3.0,3.0,-999,-99.99,,,-99.99,,2013-07-15 05:22:00,
2013-07-15 01:32:00,73.0,-99.9,-100.00,West,260,2.0,3.0,-999,-99.99,,,-99.99,,2013-07-15 05:32:00,
2013-07-15 01:43:00,73.0,-99.9,-100.00,West,260,2.0,3.0,-999,-99.99,,,-99.99,,2013-07-15 05:43:00,
2013-07-15 01:53:00,73.0,-99.9,-100.00,NW,310,2.0,3.0,-999,-99.99,,,-99.99,,2013-07-15 05:53:00,
2013-07-15 02:02:00,72.0,-99.9,-100.00,West,270,1.0,3.0,-999,-99.99,,,-99.99,,2013-07-15 06:02:00,
2013-07-15 02:12:00,72.0,-99.9,-100.00,West,270,1.0,3.0,-999,-99.99,,,-99.99,,2013-07-15 06:12:00,
2013-07-15 02:22:00,72.0,-99.9,-100.00,WSW,240,2.0,6.0,-999,-99.99,,,-99.99,,2013-07-15 06:22:00,
2013-07-15 02:32:00,72.0,-99.9,-100.00,SW,230,6.0,7.0,-999,-99.99,,,-99.99,,2013-07-15 06:32:00,
2013-07-15 02:42:00,72.0,-99.9,-100.00,SW,230,6.0,7.0,-999,-99.99,,,-99.99,,2013-07-15 06:42:00,
2013-07-15 02:53:00,71.0,-99.9,-100.00,SW,230,5.0,7.0,-999,-99.99,,,-99.99,,2013-07-15 06:53:00,
2013-07-15 03:01:00,71.0,-99.9,-100.00,SW,230,5.0,7.0,-999,-99.99,,,-99.99,,2013-07-15 07:01:00,
2013-07-15 03:11:00,71.0,-99.9,-100.00,SW,230,5.0,7.0,-999,-99.99,,,-99.99,,2013-07-15 07:11:00,
2013-07-15 03:22:00,71.0,-99.9,-100.00,WSW,240,5.0,6.0,-999,-99.99,,,-99.99,,2013-07-15 07:22:00,
2013-07-15 03:33:00,71.0,-99.9,-100.00,WSW,240,5.0,6.0,-999,-99.99,,,-99.99,,2013-07-15 07:33:00,
2013-07-15 03:44:00,71.0,-99.9,-100.00,WSW,240,5.0,6.0,-999,-99.99,,,-99.99,,2013-07-15 07:44:00,
2013-07-15 04:02:00,71.0,-99.9,-100.00,WSW,250,2.0,3.0,-999,-99.99,,,-99.99,,2013-07-15 08:02:00,
2013-07-15 04:12:00,71.0,-99.9,-100.00,WSW,250,2.0,3.0,-999,-99.99,,,-99.99,,2013-07-15 08:12:00,
2013-07-15 04:22:00,71.0,-99.9,-100.00,West,260,1.0,2.0,-999,-99.99,,,-99.99,,2013-07-15 08:22:00,
2013-07-15 04:32:00,71.0,-99.9,-100.00,WSW,250,2.0,3.0,-999,-99.99,,,-99.99,,2013-07-15 08:32:00,
2013-07-15 04:44:00,71.0,-99.9,-100.00,WSW,250,2.0,3.0,-999,-99.99,,,-99.99,,2013-07-15 08:44:00,
2013-07-15 04:53:00,70.0,-99.9,-100.00,WSW,240,2.0,2.0,-999,-99.99,,,-99.99,,2013-07-15 08:53:00,
2013-07-15 05:02:00,70.0,-99.9,-100.00,WSW,250,2.0,3.0,-999,-99.99,,,-99.99,,2013-07-15 09:02:00,
2013-07-15 05:12:00,70.0,-99.9,-100.00,WSW,250,2.0,3.0,-999,-99.99,,,-99.99,,2013-07-15 09:12:00,
2013-07-15 05:22:00,70.0,-99.9,-100.00,WSW,250,1.0,2.0,-999,-99.99,,,-99.99,,2013-07-15 09:22:00,
2013-07-15 05:32:00,70.0,-99.9,-100.00,WSW,240,2.0,2.0,-999,-99.99,,,-99.99,,2013-07-15 09:32:00,
2013-07-15 05:43:00,70.0,-99.9,-100.00,WSW,240,2.0,2.0,-999,-99.99,,,-99.99,,2013-07-15 09:43:00,
2013-07-15 05:53:00,70.0,-99.9,-100.00,West,270,1.0,2.0,-999,-99.99,,,-99.99,,2013-07-15 09:53:00,
2013-07-15 06:02:00,69.0,-99.9,-100.00,WSW,240,2.0,3.0,-999,-99.99,,,-99.99,,2013-07-15 10:02:00,
2013-07-15 06:11:00,69.0,-99.9,-100.00,WSW,240,2.0,3.0,-999,-99.99,,,-99.99,,2013-07-15 10:11:00,
2013-07-15 06:22:00,69.0,-99.9,-100.00,WSW,240,2.0,3.0,-999,-99.99,,,-99.99,,2013-07-15 10:22:00,
2013-07-15 06:32:00,69.0,-99.9,-100.00,West,270,2.0,3.0,-999,-99.99,,,-99.99,,2013-07-15 10:32:00,
2013-07-15 06:43:00,69.0,-99.9,-100.00,West,270,2.0,3.0,-999,-99.99,,,-99.99,,2013-07-15 10:43:00,
2013-07-15 06:53:00,69.0,-99.9,-100.00,West,260,2.0,2.0,-999,-99.99,,,-99.99,,2013-07-15 10:53:00,
2013-07-15 07:02:00,69.0,-99.9,-100.00,West,260,3.0,3.0,-999,-99.99,,,-99.99,,2013-07-15 11:02:00,
2013-07-15 07:11:00,69.0,-99.9,-100.00,West,260,3.0,3.0,-999,-99.99,,,-99.99,,2013-07-15 11:11:00,
2013-07-15 07:22:00,70.0,-99.9,-100.00,WSW,250,3.0,3.0,-999,-99.99,,,-99.99,,2013-07-15 11:22:00,
2013-07-15 07:32:00,70.0,-99.9,-100.00,West,270,2.0,2.0,-999,-99.99,,,-99.99,,2013-07-15 11:32:00,
2013-07-15 07:43:00,70.0,-99.9,-100.00,West,270,2.0,2.0,-999,-99.99,,,-99.99,,2013-07-15 11:43:00,
2013-07-15 07:52:00,71.0,-99.9,-100.00,WNW,300,3.0,5.0,-999,-99.99,,,-99.99,,2013-07-15 11:52:00,
2013-07-15 08:01:00,72.0,-99.9,-100.00,West,280,2.0,5.0,-999,-99.99,,,-99.99,,2013-07-15 12:01:00,
2013-07-15 08:11:00,72.0,-99.9,-100.00,West,280,2.0,5.0,-999,-99.99,,,-99.99,,2013-07-15 12:11:00,
2013-07-15 08:22:00,75.0,-99.9,-100.00,WSW,240,3.0,3.0,-999,-99.99,,,-99.99,,2013-07-15 12:22:00,
2013-07-15 08:33:00,75.0,-99.9,-100.00,SW,230,5.0,5.0,-999,-99.99,,,-99.99,,2013-07-15 12:33:00,
2013-07-15 08:42:00,75.0,-99.9,-100.00,SW,230,5.0,5.0,-999,-99.99,,,-99.99,,2013-07-15 12:42:00,
2013-07-15 08:53:00,76.0,-99.9,-100.00,SSW,210,5.0,6.0,-999,-99.99,,,-99.99,,2013-07-15 12:53:00,
2013-07-15 09:02:00,75.0,-99.9,-100.00,SSW,210,5.0,5.0,-999,-99.99,,,-99.99,,2013-07-15 13:02:00,
2013-07-15 09:11:00,75.0,-99.9,-100.00,SSW,210,5.0,5.0,-999,-99.99,,,-99.99,,2013-07-15 13:11:00,
2013-07-15 09:33:00,80.0,-99.9,-100.00,SW,230,3.0,3.0,-999,-99.99,,,-99.99,,2013-07-15 13:33:00,
2013-07-15 09:43:00,80.0,-99.9,-100.00,SW,230,3.0,3.0,-999,-99.99,,,-99.99,,2013-07-15 13:43:00,
2013-07-15 10:02:00,76.0,-99.9,-100.00,SSE,160,3.0,5.0,-999,-99.99,,,-99.99,,2013-07-15 14:02:00,
2013-07-15 10:11:00,76.0,-99.9,-100.00,SSE,160,3.0,5.0,-999,-99.99,,,-99.99,,2013-07-15 14:11:00,
2013-07-15 10:22:00,76.0,-99.9,-100.00,SSE,160,3.0,5.0,-999,-99.99,,,-99.99,,2013-07-15 14:22:00,
2013-07-15 10:30:00,73.0,-99.9,-100.00,SE,130,5.0,6.0,-999,-99.99,,,-99.99,,2013-07-15 14:30:00,
2013-07-15 10:33:00,74.0,-99.9,-100.00,SSE,160,5.0,6.0,-999,-99.99,,,-99.99,,2013-07-15 14:33:00,
2013-07-15 10:43:00,74.0,-99.9,-100.00,SSE,160,5.0,6.0,-999,-99.99,,,-99.99,,2013-07-15 14:43:00,
2013-07-15 11:00:00,75.0,-99.9,-100.00,SSE,150,2.0,3.0,-999,-99.99,,,-99.99,,2013-07-15 15:00:00,
2013-07-15 11:03:00,73.0,-99.9,-100.00,SE,130,5.0,6.0,-999,-99.99,,,-99.99,,2013-07-15 15:03:00,
2013-07-15 11:50:00,75.0,-99.9,-100.00,SSE,150,2.0,3.0,-999,-99.99,,,-99.99,,2013-07-15 15:50:00,
2013-07-15 13:08:00,79.0,-99.9,-100.00,SE,130,8.0,9.0,-999,-99.99,,,-99.99,,2013-07-15 17:08:00,
2013-07-15 14:41:00,79.0,-99.9,-100.00,East,100,7.0,8.0,-999,-99.99,,,-99.99,,2013-07-15 18:41:00,
2013-07-15 15:05:00,80.0,-99.9,-100.00,ESE,110,12.0,13.0,-999,-99.99,,,-99.99,,2013-07-15 19:05:00,
2013-07-15 15:12:00,80.0,-99.9,-100.00,ESE,110,12.0,13.0,-999,-99.99,,,-99.99,,2013-07-15 19:12:00,
2013-07-15 15:24:00,80.0,-99.9,-100.00,ESE,110,12.0,13.0,-999,-99.99,,,-99.99,,2013-07-15 19:24:00,
2013-07-15 15:39:00,79.0,-99.9,-100.00,ESE,110,8.0,9.0,-999,-99.99,,,-99.99,,2013-07-15 19:39:00,
2013-07-15 15:50:00,79.0,-99.9,-100.00,ESE,120,9.0,10.0,-999,-99.99,,,-99.99,,2013-07-15 19:50:00,
2013-07-15 16:07:00,78.0,-99.9,-100.00,East,100,8.0,10.0,-999,-99.99,,,-99.99,,2013-07-15 20:07:00,
2013-07-15 16:43:00,74.0,-99.9,-100.00,SSE,150,10.0,13.0,-999,-99.99,,,-99.99,,2013-07-15 20:43:00,
2013-07-15 17:00:00,73.0,-99.9,-100.00,SSE,150,10.0,12.0,-999,-99.99,,,-99.99,,2013-07-15 21:00:00,
2013-07-15 17:15:00,74.0,-99.9,-100.00,SE,140,5.0,6.0,-999,-99.99,,,-99.99,,2013-07-15 21:15:00,
2013-07-15 17:24:00,74.0,-99.9,-100.00,SE,140,7.0,8.0,-999,-99.99,,,-99.99,,2013-07-15 21:24:00,
2013-07-15 17:48:00,75.0,-99.9,-100.00,SSE,160,5.0,6.0,-999,-99.99,,,-99.99,,2013-07-15 21:48:00,
2013-07-15 18:02:00,74.0,-99.9,-100.00,SE,140,5.0,6.0,-999,-99.99,,,-99.99,,2013-07-15 22:02:00,
2013-07-15 18:44:00,76.0,-99.9,-100.00,SSE,160,5.0,6.0,-999,-99.99,,,-99.99,,2013-07-15 22:44:00,
2013-07-15 18:55:00,76.0,-99.9,-100.00,SSE,150,8.0,9.0,-999,-99.99,,,-99.99,,2013-07-15 22:55:00,
2013-07-15 19:13:00,77.0,-99.9,-100.00,South,180,8.0,9.0,-999,-99.99,,,-99.99,,2013-07-15 23:13:00,
2013-07-15 19:40:00,76.0,-99.9,-100.00,South,170,7.0,8.0,-999,-99.99,,,-99.99,,2013-07-15 23:40:00,
2013-07-15 19:50:00,76.0,-99.9,-100.00,South,170,7.0,8.0,-999,-99.99,,,-99.99,,2013-07-15 23:50:00,
2013-07-15 20:03:00,76.0,-99.9,-100.00,SSE,150,5.0,6.0,-999,-99.99,,,-99.99,,2013-07-16 00:03:00,
2013-07-15 20:16:00,76.0,-99.9,-100.00,SSE,150,5.0,6.0,-999,-99.99,,,-99.99,,2013-07-16 00:16:00,
2013-07-15 20:34:00,74.0,-99.9,-100.00,ESE,120,5.0,5.0,-999,-99.99,,,-99.99,,2013-07-16 00:34:00,
2013-07-15 20:51:00,74.0,-99.9,-100.00,ESE,120,5.0,5.0,-999,-99.99,,,-99.99,,2013-07-16 00:51:00,
2013-07-15 21:11:00,74.0,-99.9,-100.00,SSE,150,6.0,7.0,-999,-99.99,,,-99.99,,2013-07-16 01:11:00,
2013-07-15 21:17:00,74.0,-99.9,-100.00,SSE,150,6.0,7.0,-999,-99.99,,,-99.99,,2013-07-16 01:17:00,
2013-07-15 21:49:00,75.0,-99.9,-100.00,SSE,160,5.0,6.0,-999,-99.99,,,-99.99,,2013-07-16 01:49:00,
2013-07-15 22:07:00,75.0,-99.9,-100.00,South,180,2.0,3.0,-999,-99.99,,,-99.99,,2013-07-16 02:07:00,
2013-07-15 22:30:00,73.0,-99.9,-100.00,East,90,2.0,3.0,-999,-99.99,,,-99.99,,2013-07-16 02:30:00,
2013-07-15 23:11:00,73.0,-99.9,-100.00,East,90,2.0,3.0,-999,-99.99,,,-99.99,,2013-07-16 03:11:00,
2013-07-15 23:17:00,73.0,-99.9,-100.00,East,90,2.0,3.0,-999,-99.99,,,-99.99,,2013-07-16 03:17:00,
2013-07-15 23:29:00,73.0,-99.9,-100.00,East,90,2.0,3.0,-999,-99.99,,,-99.99,,2013-07-16 03:29:00,
2013-07-15 23:49:00,74.0,-99.9,-100.00,SE,140,1.0,2.0,-999,-99.99,,,-99.99,,2013-07-16 03:49:00,